Flight Track Log - Related Links

Times and Time Zones

All times are in EDT time to prevent confusion due to time zone crossing. See the ASQ5678 flight status page for this flight to view local times or setup timezone preferences in your user account.

Time Position Orientation Groundspeed Altitude Reporting Facility
EDT Latitude Longitude Course Direction KTS MPH feet Rate Location/Type
Thu 12:40:20 PM 30.0147 -95.3708 North 219 252 3,300  Level Houston Center
Thu 12:41:34 PM 30.0958 -95.3636 North 236 272 6,100 2,276 Climbing Houston Center
Thu 12:42:00 PM 30.2909 -95.4128 349° North  Level FlightAware Approximate
Thu 12:42:16 PM 30.1389 -95.3594 North 245 282 7,700  Level Houston Center
Thu 12:42:40 PM 30.1728 -95.3567 North 256 295 9,300 2,656 Climbing Houston Center
Thu 12:43:00 PM 30.3685 -95.4300 349° North  Level FlightAware Approximate
Thu 12:43:17 PM 30.2094 -95.3678 345° North 262 302 10,400  Level Houston Center
Thu 12:44:00 PM 30.4454 -95.4510 346° North  Level FlightAware Approximate
Thu 12:44:19 PM 30.2847 -95.3925 344° North 281 323 11,600  Level Houston Center
Thu 12:45:00 PM 30.5227 -95.4667 North  Level FlightAware Approximate
Thu 12:45:22 PM 30.3744 -95.4233 343° North 329 379 12,800  Level Houston Center
Thu 12:46:24 PM 30.4844 -95.4622 343° North 345 397 14,600 1,645 Climbing Houston Center
Thu 12:47:26 PM 30.5806 -95.4850 348° North 350 403 16,200 1,500 Climbing Houston Center
Thu 12:48:28 PM 30.6778 -95.5078 349° North 356 410 17,700 1,452 Climbing Houston Center
Thu 12:49:30 PM 30.7850 -95.5322 349° North 364 419 19,200 1,113 Climbing Houston Center
Thu 12:50:32 PM 30.8894 -95.5558 349° North 377 434 20,000 271 Climbing Houston Center
Thu 12:52:27 PM 31.1128 -95.6081 349° North 410 472 20,000  Level Fort Worth Center
Thu 12:53:27 PM 31.2300 -95.6325 350° North 403 464 20,000  Level Fort Worth Center
Thu 12:54:27 PM 31.3283 -95.6550 349° North 409 471 20,000  Level Fort Worth Center
Thu 12:55:27 PM 31.4314 -95.7114 335° Northwest 404 465 20,000  Level Fort Worth Center
Thu 12:57:27 PM 31.6294 -95.8422 331° Northwest 410 472 20,000 -100 Level Fort Worth Center
Thu 12:58:27 PM 31.7347 -95.9208 328° Northwest 410 472 19,700 -1,100 Descending Fort Worth Center
Thu 12:59:27 PM 31.8272 -95.9756 333° Northwest 404 465 17,800 -2,000 Descending Fort Worth Center
Thu 01:00:27 PM 31.9178 -96.0378 330° Northwest 390 449 15,700 -2,200 Descending Fort Worth Center
Thu 01:01:27 PM 32.0039 -96.0978 329° Northwest 379 436 13,400 -2,200 Descending Fort Worth Center
Thu 01:02:27 PM 32.0944 -96.1553 332° Northwest 359 413 11,300 -1,800 Descending Fort Worth Center
Thu 01:03:27 PM 32.1742 -96.2108 329° Northwest 347 399 9,800 -1,150 Descending Fort Worth Center
Thu 01:04:27 PM 32.2394 -96.2517 332° Northwest 278 320 9,000 -400 Descending Fort Worth Center
Thu 01:05:27 PM 32.3044 -96.2875 335° Northwest 263 303 9,000  Level Fort Worth Center
Thu 01:06:27 PM 32.3672 -96.3286 331° Northwest 258 297 9,000  Level Fort Worth Center
Thu 01:07:27 PM 32.4303 -96.3672 333° Northwest 258 297 9,000 -700 Level Fort Worth Center
Thu 01:08:27 PM 32.4831 -96.4283 316° Northwest 253 291 7,600 -1,400 Descending Fort Worth Center
Thu 01:09:27 PM 32.5336 -96.4844 317° Northwest 253 291 6,200 -1,300 Descending Fort Worth Center
Thu 01:10:27 PM 32.5819 -96.5406 316° Northwest 258 297 5,000 -1,200 Descending Fort Worth Center
Thu 01:11:27 PM 32.6303 -96.5969 316° Northwest 242 278 3,800 -1,100 Descending Fort Worth Center
Thu 01:12:27 PM 32.6681 -96.6408 316° Northwest 217 250 2,800 -672 Descending Fort Worth Center
Thu 01:13:32 PM 32.7167 -96.6833 324° Northwest 157 181 2,400 -202 Descending Dallas / Fort Worth TRACON
Thu 01:14:26 PM 32.7333 -96.7167 301° West 155 178 2,400  Level Dallas / Fort Worth TRACON
Thu 01:15:26 PM 32.7667 -96.7500 320° Northwest 140 161 2,400 -238 Level Dallas / Fort Worth TRACON
Thu 01:16:32 PM 32.8000 -96.7833 320° Northwest 107 123 1,900 -455 Descending Dallas / Fort Worth TRACON

Login

Don't have an account? Register now (free) for customized features, flight alerts, and more!